createdAt,value
2023-06-19T00:03:11.682Z,100106.16
2023-06-19T00:08:18.710Z,100110.48
2023-06-19T00:13:25.755Z,100114.20
2023-06-19T00:18:41.725Z,100112.08
2023-06-19T00:23:49.055Z,100106.58
2023-06-19T00:28:57.447Z,100101.48
2023-06-19T00:34:04.465Z,100101.27
2023-06-19T00:39:12.062Z,100104.89
2023-06-19T00:44:20.562Z,100102.39
2023-06-19T00:49:27.855Z,100104.42
2023-06-19T00:54:35.252Z,100104.35
2023-06-19T00:59:42.409Z,100102.69
2023-06-19T01:04:49.481Z,100099.17
2023-06-19T01:10:01.323Z,100094.56
2023-06-19T01:15:10.445Z,100090.91
2023-06-19T01:20:18.904Z,100089.09
2023-06-19T01:25:26.470Z,100092.67
2023-06-19T01:30:34.103Z,100093.92
2023-06-19T01:35:44.263Z,100092.55
2023-06-19T01:40:52.630Z,100095.15
2023-06-19T01:45:59.965Z,100096.26
2023-06-19T01:51:08.474Z,100099.50
2023-06-19T01:56:15.449Z,100100.65
2023-06-19T02:01:22.446Z,100096.50
2023-06-19T02:06:31.817Z,100103.08
2023-06-19T02:11:38.826Z,100103.36
2023-06-19T02:16:48.386Z,100100.38
2023-06-19T02:21:55.565Z,100095.52
2023-06-19T02:27:03.666Z,100097.52
2023-06-19T02:32:11.963Z,100099.88
2023-06-19T02:37:19.057Z,100097.84
2023-06-19T02:42:25.975Z,100095.16
2023-06-19T02:47:33.048Z,100090.08
2023-06-19T02:52:40.080Z,100093.11
2023-06-19T02:57:47.297Z,100099.40
2023-06-19T03:02:54.841Z,100100.55
2023-06-19T03:08:02.057Z,100106.27
2023-06-19T03:13:09.120Z,100110.25
2023-06-19T03:18:16.425Z,100113.02
2023-06-19T03:23:23.468Z,100115.52
2023-06-19T03:28:31.535Z,100113.67
2023-06-19T03:33:39.204Z,100107.92
2023-06-19T03:38:47.440Z,100110.62
2023-06-19T03:43:55.038Z,100108.02
2023-06-19T03:49:02.047Z,100103.80
2023-06-19T03:54:09.108Z,100102.69
2023-06-19T03:59:16.650Z,100104.02
2023-06-19T04:04:23.931Z,100103.63
2023-06-19T04:09:31.055Z,100104.06
2023-06-19T04:14:38.057Z,100105.96
2023-06-19T04:19:45.237Z,100106.83
2023-06-19T04:24:52.237Z,100109.70
2023-06-19T04:29:59.380Z,100103.09
2023-06-19T04:35:07.383Z,100106.43
2023-06-19T04:40:15.009Z,100112.98
2023-06-19T04:45:22.240Z,100116.30
2023-06-19T04:50:29.154Z,100110.05
2023-06-19T04:55:36.173Z,100114.94
2023-06-19T05:00:43.576Z,100113.36
2023-06-19T05:05:50.665Z,100109.35
2023-06-19T05:10:58.925Z,100111.15
2023-06-19T05:16:06.165Z,100122.53
2023-06-19T05:21:13.963Z,100123.98
2023-06-19T05:26:21.745Z,100120.86
2023-06-19T05:31:28.908Z,100122.64
2023-06-19T05:36:35.836Z,100125.40
2023-06-19T05:41:43.409Z,100130.98
2023-06-19T05:46:50.744Z,100140.56
2023-06-19T05:52:00.440Z,100155.41
2023-06-19T05:57:09.586Z,100160.02
2023-06-19T06:02:16.520Z,100159.51
2023-06-19T06:07:23.634Z,100163.73
2023-06-19T06:12:30.524Z,100159.48
2023-06-19T06:17:37.521Z,100168.77
2023-06-19T06:22:45.132Z,100175.76
2023-06-19T06:27:52.642Z,100175.36
2023-06-19T06:32:59.667Z,100178.52
2023-06-19T06:38:06.638Z,100180.17
2023-06-19T06:43:13.461Z,100187.52
2023-06-19T06:48:20.545Z,100185.90
2023-06-19T06:53:29.161Z,100188.70
2023-06-19T06:58:36.057Z,100189.48
2023-06-19T07:03:43.239Z,100193.56
2023-06-19T07:08:50.394Z,100192.66
2023-06-19T07:13:57.347Z,100196.58
2023-06-19T07:19:04.342Z,100197.06
2023-06-19T07:24:11.854Z,100189.96
2023-06-19T07:29:18.974Z,100188.27
2023-06-19T07:34:26.426Z,100187.55
2023-06-19T07:39:33.441Z,100184.66
2023-06-19T07:44:40.420Z,100192.16
2023-06-19T07:49:47.748Z,100198.14
2023-06-19T07:54:59.018Z,100195.27
2023-06-19T08:00:12.506Z,100196.51
2023-06-19T08:05:20.221Z,100191.52
2023-06-19T08:10:27.719Z,100181.39
2023-06-19T08:15:35.476Z,100181.27
2023-06-19T08:20:42.529Z,100182.75
2023-06-19T08:25:49.547Z,100182.32
2023-06-19T08:30:56.447Z,100176.42
2023-06-19T08:36:03.876Z,100175.00
2023-06-19T08:41:10.958Z,100168.95
2023-06-19T08:46:20.586Z,100167.20
2023-06-19T08:51:32.611Z,100164.35
2023-06-19T08:56:43.170Z,100160.54
2023-06-19T09:01:53.794Z,100151.66
2023-06-19T09:07:11.682Z,100153.84
2023-06-19T09:12:25.340Z,100159.42
2023-06-19T09:17:38.747Z,100157.17
2023-06-19T09:22:58.159Z,100151.81
2023-06-19T09:28:05.365Z,100144.84
2023-06-19T09:33:12.471Z,100146.39
2023-06-19T09:38:22.593Z,100147.13
2023-06-19T09:43:35.742Z,100149.20
2023-06-19T09:48:47.582Z,100151.20
2023-06-19T09:53:54.682Z,100143.61
2023-06-19T09:59:04.046Z,100142.14
2023-06-19T10:04:12.508Z,100138.54
2023-06-19T10:09:20.408Z,100133.60
2023-06-19T10:14:27.598Z,100137.88
2023-06-19T10:19:37.703Z,100134.04
2023-06-19T10:24:52.993Z,100131.08
2023-06-19T10:30:06.392Z,100119.66
2023-06-19T10:35:25.229Z,100117.48
2023-06-19T10:40:32.354Z,100116.16
2023-06-19T10:45:39.337Z,100121.28
2023-06-19T10:50:46.780Z,100123.01
2023-06-19T10:55:58.488Z,100122.39
2023-06-19T11:01:05.897Z,100119.18
2023-06-19T11:06:13.267Z,100111.61
2023-06-19T11:11:21.536Z,100105.38
2023-06-19T11:16:29.752Z,100102.25
2023-06-19T11:21:39.348Z,100105.02
2023-06-19T11:26:51.940Z,100104.22
2023-06-19T11:32:11.918Z,100103.67
2023-06-19T11:37:22.172Z,100104.13
2023-06-19T11:42:31.174Z,100101.33
2023-06-19T11:47:38.801Z,100095.16
2023-06-19T11:52:47.006Z,100088.91
2023-06-19T11:57:52.426Z,100080.92
2023-06-19T12:03:00.078Z,100082.48
2023-06-19T12:08:08.074Z,100081.90
2023-06-19T12:13:15.095Z,100082.63
2023-06-19T12:18:22.302Z,100074.10
2023-06-19T12:23:29.730Z,100067.77
2023-06-19T12:28:36.927Z,100068.51
2023-06-19T12:33:44.948Z,100065.73
2023-06-19T12:38:51.967Z,100064.02
2023-06-19T12:43:59.268Z,100058.44
2023-06-19T12:49:06.268Z,100055.73
2023-06-19T12:54:13.132Z,100053.08
2023-06-19T12:59:20.633Z,100052.95
2023-06-19T13:04:27.634Z,100047.25
2023-06-19T13:09:34.694Z,100046.82
2023-06-19T13:14:41.624Z,100051.39
2023-06-19T13:19:48.528Z,100046.87
2023-06-19T13:24:56.776Z,100045.59
2023-06-19T13:30:04.769Z,100047.20
2023-06-19T13:35:12.155Z,100039.50
2023-06-19T13:40:19.138Z,100032.48
2023-06-19T13:45:26.330Z,100027.73
2023-06-19T13:50:34.134Z,100030.94
2023-06-19T13:55:41.088Z,100024.83
2023-06-19T14:00:48.737Z,100024.53
2023-06-19T14:05:56.434Z,100026.88
2023-06-19T14:11:03.481Z,100022.41
2023-06-19T14:16:10.912Z,100020.52
2023-06-19T14:21:17.899Z,100021.23
2023-06-19T14:26:24.916Z,100016.35
2023-06-19T14:31:31.918Z,100017.50
2023-06-19T14:36:40.817Z,100015.69
2023-06-19T14:41:47.917Z,100019.08
2023-06-19T14:46:54.938Z,100025.22
2023-06-19T14:52:02.104Z,100023.74
2023-06-19T14:57:10.239Z,100029.34
2023-06-19T15:02:17.274Z,100023.91
2023-06-19T15:07:25.067Z,100021.32
2023-06-19T15:12:33.342Z,100022.02
2023-06-19T15:17:41.092Z,100026.95
2023-06-19T15:22:48.187Z,100016.86
2023-06-19T15:27:55.281Z,100017.84
2023-06-19T15:33:00.790Z,100015.02
2023-06-19T15:38:07.989Z,100014.86
2023-06-19T15:43:15.042Z,100011.32
2023-06-19T15:48:22.150Z,100013.89
2023-06-19T15:53:29.236Z,100010.66
2023-06-19T15:58:36.326Z,100009.35
2023-06-19T16:03:44.097Z,100006.43
2023-06-19T16:08:53.081Z,100006.10
2023-06-19T16:14:00.704Z,100003.11
2023-06-19T16:19:07.664Z,100002.60
2023-06-19T16:24:14.603Z,99994.85
2023-06-19T16:29:21.774Z,99991.23
2023-06-19T16:34:31.109Z,99988.56
2023-06-19T16:39:42.490Z,99988.33
2023-06-19T16:44:49.485Z,99994.59
2023-06-19T16:49:56.937Z,99990.58
2023-06-19T16:55:04.030Z,99986.77
2023-06-19T17:00:13.062Z,99989.46
2023-06-19T17:05:22.291Z,99993.11
2023-06-19T17:10:30.503Z,99993.41
2023-06-19T17:15:36.036Z,99989.73
2023-06-19T17:20:43.383Z,99986.39
2023-06-19T17:25:50.550Z,99983.80
2023-06-19T17:30:57.493Z,99988.52
2023-06-19T17:36:05.099Z,99983.64
2023-06-19T17:41:12.092Z,99980.13
2023-06-19T17:46:19.036Z,99971.70
2023-06-19T17:51:26.433Z,99974.23
2023-06-19T17:56:33.458Z,99972.46
2023-06-19T18:01:40.793Z,99970.48
2023-06-19T18:06:47.777Z,99978.61
2023-06-19T18:11:54.779Z,99982.13
2023-06-19T18:17:04.865Z,99984.63
2023-06-19T18:22:11.841Z,99984.04
2023-06-19T18:27:19.645Z,99988.22
2023-06-19T18:32:26.705Z,99995.69
2023-06-19T18:37:33.876Z,99997.60
2023-06-19T18:42:42.247Z,99991.58
2023-06-19T18:47:49.414Z,99988.98
2023-06-19T18:52:57.238Z,99997.23
2023-06-19T18:58:04.256Z,100004.97
2023-06-19T19:03:11.480Z,100006.29
2023-06-19T19:08:18.621Z,100010.70
2023-06-19T19:13:25.800Z,100010.82
2023-06-19T19:18:32.799Z,100013.77
2023-06-19T19:23:39.664Z,100017.83
2023-06-19T19:28:46.635Z,100015.56
2023-06-19T19:33:54.066Z,100011.45
2023-06-19T19:39:01.114Z,100019.20
2023-06-19T19:44:08.254Z,100035.13
2023-06-19T19:49:15.250Z,100042.30
2023-06-19T19:54:30.057Z,100048.33
2023-06-19T19:59:46.057Z,100050.59
2023-06-19T20:04:53.625Z,100047.63
2023-06-19T20:10:01.712Z,100049.87
2023-06-19T20:15:11.290Z,100054.23
2023-06-19T20:20:18.289Z,100062.51
2023-06-19T20:25:25.228Z,100059.71
2023-06-19T20:30:32.963Z,100070.28
2023-06-19T20:35:39.898Z,100068.30
2023-06-19T20:40:46.767Z,100072.92
2023-06-19T20:45:53.841Z,100073.93
2023-06-19T20:51:00.738Z,100066.03
2023-06-19T20:56:07.894Z,100067.79
2023-06-19T21:01:14.818Z,100073.05
2023-06-19T21:06:23.652Z,100072.79
2023-06-19T21:11:30.597Z,100073.34
2023-06-19T21:16:37.856Z,100076.02
2023-06-19T21:21:44.792Z,100080.35
2023-06-19T21:26:53.307Z,100083.17
2023-06-19T21:32:00.263Z,100073.37
2023-06-19T21:37:07.856Z,100074.12
2023-06-19T21:42:14.925Z,100084.39
2023-06-19T21:47:21.932Z,100091.39
2023-06-19T21:52:28.853Z,100097.15
2023-06-19T21:57:53.779Z,100103.41
2023-06-19T22:03:04.933Z,100104.16
2023-06-19T22:08:12.159Z,100102.55
2023-06-19T22:13:19.087Z,100101.13
2023-06-19T22:18:26.127Z,100099.71
2023-06-19T22:23:33.568Z,100095.50
2023-06-19T22:28:40.557Z,100100.23
2023-06-19T22:33:51.543Z,100094.59
2023-06-19T22:38:58.728Z,100098.02
2023-06-19T22:44:05.964Z,100105.33
2023-06-19T22:49:14.890Z,100103.92
2023-06-19T22:54:21.891Z,100104.08
2023-06-19T22:59:29.172Z,100098.83
2023-06-19T23:04:36.938Z,100101.67
2023-06-19T23:09:44.231Z,100095.22
2023-06-19T23:14:51.212Z,100096.53
2023-06-19T23:19:59.562Z,100092.88
2023-06-19T23:25:07.474Z,100090.59
2023-06-19T23:30:15.018Z,100086.42
2023-06-19T23:35:24.351Z,100087.91
2023-06-19T23:40:31.566Z,100089.59
2023-06-19T23:45:38.477Z,100092.25
2023-06-19T23:50:45.343Z,100094.85
2023-06-19T23:55:52.475Z,100090.73
